Weather at Santa Rosa Helistop

Public forecast

Using degrees Fahrenheit for public forecast. Weather courtesy of forecast.io.

Closest aviation weather report (METAR) to Santa Rosa Helistop

Closest report is Lackland Air Force Base, 5.0 nm (9.2 km) WSW.

2024/07/20 17:55 (retrieved 24 minutes ago)

KSKF 201755Z COR 21006KT 10SM FEW170 FEW200 34/22 A3001 RMK AO2 SLP153 T03360217 10336 20243 55008 COR 1759

Closest aviation forecast (TAF) to Santa Rosa Helistop

Closest forecast is Lackland Air Force Base, 5.0 nm (9.2 km) WSW.

2024/07/20 18:08 (retrieved 11 minutes ago)

TAF KSKF 201800Z 2018/2124 12012KT 9999 SCT060 QNH2990INS BECMG 2102/2103 15008KT 9999 SKC QNH2995INS BECMG 2109/2110 15006KT 9999 BKN008 QNH2996INS BECMG 2114/2115 14008KT 9999 FEW012 QNH2988INS BECMG 2121/2122 11010KT 9999 VCSH SCT060 QNH2987INS TX37/2022Z TN25/2112Z